sensor_id;sensor_type;location;lat;lon;timestamp;pressure;altitude;pressure_sealevel;temperature;humidity
13732;BME280;6937;56.096;12.664;2023-05-29T00:00:29;101865.84;;;10.95;100.00
13732;BME280;6937;56.096;12.664;2023-05-29T00:02:55;101868.44;;;10.96;100.00
13732;BME280;6937;56.096;12.664;2023-05-29T00:05:20;101871.72;;;11.01;100.00
13732;BME280;6937;56.096;12.664;2023-05-29T00:07:46;101870.69;;;11.04;100.00
13732;BME280;6937;56.096;12.664;2023-05-29T00:10:11;101872.47;;;11.03;100.00
13732;BME280;6937;56.096;12.664;2023-05-29T00:12:38;101869.91;;;11.02;100.00
13732;BME280;6937;56.096;12.664;2023-05-29T00:15:04;101872.59;;;11.02;100.00
13732;BME280;6937;56.096;12.664;2023-05-29T00:17:30;101867.31;;;11.00;100.00
13732;BME280;6937;56.096;12.664;2023-05-29T00:19:59;101864.72;;;10.99;100.00
13732;BME280;6937;56.096;12.664;2023-05-29T00:22:26;101871.97;;;10.97;100.00
13732;BME280;6937;56.096;12.664;2023-05-29T00:24:52;101871.03;;;10.98;100.00
13732;BME280;6937;56.096;12.664;2023-05-29T00:27:17;101870.16;;;10.97;100.00
13732;BME280;6937;56.096;12.664;2023-05-29T00:29:43;101880.88;;;10.97;100.00
13732;BME280;6937;56.096;12.664;2023-05-29T00:32:09;101887.09;;;10.98;100.00
13732;BME280;6937;56.096;12.664;2023-05-29T00:34:35;101884.41;;;10.98;100.00
13732;BME280;6937;56.096;12.664;2023-05-29T00:37:00;101886.22;;;10.97;100.00
13732;BME280;6937;56.096;12.664;2023-05-29T00:39:26;101895.34;;;10.93;100.00
13732;BME280;6937;56.096;12.664;2023-05-29T00:41:52;101889.22;;;10.91;100.00
13732;BME280;6937;56.096;12.664;2023-05-29T00:44:18;101902.59;;;10.91;100.00
13732;BME280;6937;56.096;12.664;2023-05-29T00:46:45;101900.00;;;10.90;100.00
13732;BME280;6937;56.096;12.664;2023-05-29T00:49:11;101907.34;;;10.86;100.00
13732;BME280;6937;56.096;12.664;2023-05-29T00:51:37;101904.16;;;10.80;100.00
13732;BME280;6937;56.096;12.664;2023-05-29T00:54:04;101900.63;;;10.79;100.00
13732;BME280;6937;56.096;12.664;2023-05-29T00:56:31;101909.22;;;10.84;100.00
13732;BME280;6937;56.096;12.664;2023-05-29T00:58:57;101898.47;;;10.86;100.00
13732;BME280;6937;56.096;12.664;2023-05-29T01:01:23;101906.31;;;10.89;100.00
13732;BME280;6937;56.096;12.664;2023-05-29T01:03:49;101892.25;;;10.85;100.00
13732;BME280;6937;56.096;12.664;2023-05-29T01:06:15;101892.31;;;10.84;100.00
13732;BME280;6937;56.096;12.664;2023-05-29T01:08:41;101899.41;;;10.85;100.00
13732;BME280;6937;56.096;12.664;2023-05-29T01:11:22;101894.91;;;10.85;100.00
13732;BME280;6937;56.096;12.664;2023-05-29T01:13:51;101902.06;;;10.85;100.00
13732;BME280;6937;56.096;12.664;2023-05-29T01:22:07;101897.75;;;10.82;100.00
13732;BME280;6937;56.096;12.664;2023-05-29T01:24:42;101902.19;;;10.83;100.00
13732;BME280;6937;56.096;12.664;2023-05-29T01:27:11;101893.47;;;10.80;100.00
13732;BME280;6937;56.096;12.664;2023-05-29T01:29:41;101898.88;;;10.78;100.00
13732;BME280;6937;56.096;12.664;2023-05-29T01:32:08;101900.16;;;10.71;100.00
13732;BME280;6937;56.096;12.664;2023-05-29T01:34:34;101904.81;;;10.68;100.00
13732;BME280;6937;56.096;12.664;2023-05-29T01:36:59;101907.81;;;10.61;100.00
13732;BME280;6937;56.096;12.664;2023-05-29T01:39:25;101915.84;;;10.61;100.00
13732;BME280;6937;56.096;12.664;2023-05-29T01:41:51;101910.47;;;10.61;100.00
13732;BME280;6937;56.096;12.664;2023-05-29T01:44:18;101906.34;;;10.56;100.00
13732;BME280;6937;56.096;12.664;2023-05-29T01:46:44;101914.69;;;10.50;100.00
13732;BME280;6937;56.096;12.664;2023-05-29T01:49:11;101916.94;;;10.42;100.00
13732;BME280;6937;56.096;12.664;2023-05-29T01:51:39;101920.44;;;10.42;100.00
13732;BME280;6937;56.096;12.664;2023-05-29T01:54:05;101917.06;;;10.39;100.00
13732;BME280;6937;56.096;12.664;2023-05-29T01:56:33;101921.41;;;10.41;100.00
13732;BME280;6937;56.096;12.664;2023-05-29T01:59:00;101918.03;;;10.38;100.00
13732;BME280;6937;56.096;12.664;2023-05-29T02:01:26;101919.91;;;10.36;100.00
13732;BME280;6937;56.096;12.664;2023-05-29T02:03:52;101929.66;;;10.37;100.00
13732;BME280;6937;56.096;12.664;2023-05-29T02:06:18;101925.06;;;10.39;100.00
13732;BME280;6937;56.096;12.664;2023-05-29T02:08:43;101927.69;;;10.40;100.00
13732;BME280;6937;56.096;12.664;2023-05-29T02:11:09;101931.22;;;10.41;100.00
13732;BME280;6937;56.096;12.664;2023-05-29T02:13:34;101928.56;;;10.41;100.00
13732;BME280;6937;56.096;12.664;2023-05-29T02:16:00;101931.13;;;10.42;100.00
13732;BME280;6937;56.096;12.664;2023-05-29T02:18:26;101933.66;;;10.45;100.00
13732;BME280;6937;56.096;12.664;2023-05-29T02:20:51;101932.00;;;10.43;100.00
13732;BME280;6937;56.096;12.664;2023-05-29T02:23:17;101940.00;;;10.43;100.00
13732;BME280;6937;56.096;12.664;2023-05-29T02:25:42;101939.41;;;10.38;100.00
13732;BME280;6937;56.096;12.664;2023-05-29T02:28:08;101943.19;;;10.34;100.00
13732;BME280;6937;56.096;12.664;2023-05-29T02:30:35;101942.47;;;10.30;100.00
13732;BME280;6937;56.096;12.664;2023-05-29T02:33:00;101938.31;;;10.25;100.00
13732;BME280;6937;56.096;12.664;2023-05-29T02:35:25;101933.19;;;10.20;100.00
13732;BME280;6937;56.096;12.664;2023-05-29T02:37:52;101927.09;;;10.18;100.00
13732;BME280;6937;56.096;12.664;2023-05-29T02:40:18;101935.88;;;10.20;100.00
13732;BME280;6937;56.096;12.664;2023-05-29T02:42:44;101940.44;;;10.18;100.00
13732;BME280;6937;56.096;12.664;2023-05-29T02:45:10;101940.28;;;10.21;100.00
13732;BME280;6937;56.096;12.664;2023-05-29T02:47:36;101937.38;;;10.26;100.00
13732;BME280;6937;56.096;12.664;2023-05-29T02:50:02;101947.25;;;10.24;100.00
13732;BME280;6937;56.096;12.664;2023-05-29T02:52:27;101938.72;;;10.17;100.00
13732;BME280;6937;56.096;12.664;2023-05-29T02:54:53;101937.19;;;10.11;100.00
13732;BME280;6937;56.096;12.664;2023-05-29T02:57:19;101945.84;;;9.99;100.00
13732;BME280;6937;56.096;12.664;2023-05-29T02:59:45;101958.09;;;10.03;100.00
13732;BME280;6937;56.096;12.664;2023-05-29T03:02:11;101943.88;;;10.03;100.00
13732;BME280;6937;56.096;12.664;2023-05-29T03:04:37;101944.97;;;9.99;100.00
13732;BME280;6937;56.096;12.664;2023-05-29T03:07:02;101934.13;;;10.02;100.00
13732;BME280;6937;56.096;12.664;2023-05-29T03:09:28;101945.28;;;10.10;100.00
13732;BME280;6937;56.096;12.664;2023-05-29T03:11:53;101935.31;;;10.13;100.00
13732;BME280;6937;56.096;12.664;2023-05-29T03:14:19;101932.50;;;10.16;100.00
13732;BME280;6937;56.096;12.664;2023-05-29T03:16:46;101935.09;;;10.18;100.00
13732;BME280;6937;56.096;12.664;2023-05-29T03:19:12;101942.00;;;10.22;100.00
13732;BME280;6937;56.096;12.664;2023-05-29T03:21:37;101948.28;;;10.21;100.00
13732;BME280;6937;56.096;12.664;2023-05-29T03:24:03;101942.88;;;10.23;100.00
13732;BME280;6937;56.096;12.664;2023-05-29T03:26:29;101947.13;;;10.27;100.00
13732;BME280;6937;56.096;12.664;2023-05-29T03:28:54;101955.91;;;10.29;100.00
13732;BME280;6937;56.096;12.664;2023-05-29T03:31:20;101960.31;;;10.30;100.00
13732;BME280;6937;56.096;12.664;2023-05-29T03:33:45;101959.13;;;10.35;100.00
13732;BME280;6937;56.096;12.664;2023-05-29T03:36:11;101967.84;;;10.39;100.00
13732;BME280;6937;56.096;12.664;2023-05-29T03:38:36;101965.88;;;10.42;100.00
13732;BME280;6937;56.096;12.664;2023-05-29T03:41:02;101961.38;;;10.43;100.00
13732;BME280;6937;56.096;12.664;2023-05-29T03:43:27;101970.09;;;10.46;100.00
13732;BME280;6937;56.096;12.664;2023-05-29T03:45:53;101976.31;;;10.47;100.00
13732;BME280;6937;56.096;12.664;2023-05-29T03:48:18;101975.38;;;10.48;100.00
13732;BME280;6937;56.096;12.664;2023-05-29T03:50:45;101978.84;;;10.50;100.00
13732;BME280;6937;56.096;12.664;2023-05-29T03:53:10;101987.47;;;10.55;100.00
13732;BME280;6937;56.096;12.664;2023-05-29T03:55:36;101993.63;;;10.57;100.00
13732;BME280;6937;56.096;12.664;2023-05-29T03:58:01;101996.38;;;10.55;100.00
13732;BME280;6937;56.096;12.664;2023-05-29T04:00:26;101998.97;;;10.57;100.00
13732;BME280;6937;56.096;12.664;2023-05-29T04:02:52;102006.13;;;10.56;100.00
13732;BME280;6937;56.096;12.664;2023-05-29T04:05:17;102011.38;;;10.58;100.00
13732;BME280;6937;56.096;12.664;2023-05-29T04:07:43;102012.19;;;10.60;100.00
13732;BME280;6937;56.096;12.664;2023-05-29T04:10:08;102020.09;;;10.61;100.00
13732;BME280;6937;56.096;12.664;2023-05-29T04:12:34;102019.16;;;10.62;100.00
13732;BME280;6937;56.096;12.664;2023-05-29T04:15:00;102017.34;;;10.63;100.00
13732;BME280;6937;56.096;12.664;2023-05-29T04:17:25;102016.50;;;10.62;100.00
13732;BME280;6937;56.096;12.664;2023-05-29T04:19:51;102024.19;;;10.68;100.00
13732;BME280;6937;56.096;12.664;2023-05-29T04:22:16;102022.22;;;10.72;100.00
13732;BME280;6937;56.096;12.664;2023-05-29T04:24:42;102020.31;;;10.74;100.00
13732;BME280;6937;56.096;12.664;2023-05-29T04:27:08;102025.34;;;10.80;100.00
13732;BME280;6937;56.096;12.664;2023-05-29T04:29:34;102028.66;;;10.85;100.00
13732;BME280;6937;56.096;12.664;2023-05-29T04:32:00;102016.91;;;10.88;100.00
13732;BME280;6937;56.096;12.664;2023-05-29T04:34:29;102025.56;;;10.93;100.00
13732;BME280;6937;56.096;12.664;2023-05-29T04:36:56;102024.44;;;10.97;100.00
13732;BME280;6937;56.096;12.664;2023-05-29T04:39:22;102033.00;;;11.03;100.00
13732;BME280;6937;56.096;12.664;2023-05-29T04:41:47;102033.81;;;11.05;100.00
13732;BME280;6937;56.096;12.664;2023-05-29T04:44:13;102046.75;;;11.13;100.00
13732;BME280;6937;56.096;12.664;2023-05-29T04:46:38;102045.78;;;11.14;100.00
13732;BME280;6937;56.096;12.664;2023-05-29T04:49:04;102058.84;;;11.20;100.00
13732;BME280;6937;56.096;12.664;2023-05-29T04:51:29;102067.47;;;11.25;100.00
13732;BME280;6937;56.096;12.664;2023-05-29T04:53:55;102060.06;;;11.30;100.00
13732;BME280;6937;56.096;12.664;2023-05-29T04:56:21;102062.69;;;11.32;100.00
13732;BME280;6937;56.096;12.664;2023-05-29T04:58:47;102065.88;;;11.38;100.00
13732;BME280;6937;56.096;12.664;2023-05-29T05:01:13;102056.81;;;11.41;100.00
13732;BME280;6937;56.096;12.664;2023-05-29T05:03:42;102068.38;;;11.41;100.00
13732;BME280;6937;56.096;12.664;2023-05-29T05:06:07;102077.81;;;11.48;100.00
13732;BME280;6937;56.096;12.664;2023-05-29T05:08:34;102072.97;;;11.55;100.00
13732;BME280;6937;56.096;12.664;2023-05-29T05:11:00;102078.25;;;11.56;100.00
13732;BME280;6937;56.096;12.664;2023-05-29T05:13:26;102085.09;;;11.62;100.00
13732;BME280;6937;56.096;12.664;2023-05-29T05:15:51;102074.53;;;11.59;100.00
13732;BME280;6937;56.096;12.664;2023-05-29T05:18:17;102095.38;;;11.70;100.00
13732;BME280;6937;56.096;12.664;2023-05-29T05:20:42;102098.13;;;11.68;100.00
13732;BME280;6937;56.096;12.664;2023-05-29T05:23:09;102088.06;;;11.73;100.00
13732;BME280;6937;56.096;12.664;2023-05-29T05:25:34;102087.63;;;11.81;100.00
13732;BME280;6937;56.096;12.664;2023-05-29T05:28:01;102078.56;;;11.83;100.00
13732;BME280;6937;56.096;12.664;2023-05-29T05:30:28;102093.25;;;11.92;100.00
13732;BME280;6937;56.096;12.664;2023-05-29T05:32:53;102096.78;;;11.92;100.00
13732;BME280;6937;56.096;12.664;2023-05-29T05:35:20;102089.69;;;11.91;100.00
13732;BME280;6937;56.096;12.664;2023-05-29T05:37:45;102100.84;;;11.99;100.00
13732;BME280;6937;56.096;12.664;2023-05-29T05:40:10;102108.47;;;12.07;100.00
13732;BME280;6937;56.096;12.664;2023-05-29T05:42:36;102118.44;;;12.19;100.00
13732;BME280;6937;56.096;12.664;2023-05-29T05:45:01;102107.72;;;12.19;100.00
13732;BME280;6937;56.096;12.664;2023-05-29T05:47:28;102098.75;;;12.20;100.00
13732;BME280;6937;56.096;12.664;2023-05-29T05:49:54;102116.88;;;12.31;100.00
13732;BME280;6937;56.096;12.664;2023-05-29T05:52:19;102107.72;;;12.35;100.00
13732;BME280;6937;56.096;12.664;2023-05-29T05:54:45;102107.38;;;12.41;100.00
13732;BME280;6937;56.096;12.664;2023-05-29T05:57:11;102118.41;;;12.50;100.00
13732;BME280;6937;56.096;12.664;2023-05-29T05:59:36;102112.41;;;12.61;100.00
13732;BME280;6937;56.096;12.664;2023-05-29T06:02:02;102117.59;;;12.64;100.00
13732;BME280;6937;56.096;12.664;2023-05-29T06:04:29;102115.78;;;12.65;100.00
13732;BME280;6937;56.096;12.664;2023-05-29T06:06:55;102118.94;;;12.71;100.00
13732;BME280;6937;56.096;12.664;2023-05-29T06:09:21;102118.31;;;12.82;100.00
13732;BME280;6937;56.096;12.664;2023-05-29T06:11:47;102115.25;;;12.88;100.00
13732;BME280;6937;56.096;12.664;2023-05-29T06:14:13;102127.63;;;12.90;100.00
13732;BME280;6937;56.096;12.664;2023-05-29T06:16:38;102129.63;;;12.87;100.00
13732;BME280;6937;56.096;12.664;2023-05-29T06:19:04;102127.63;;;12.90;100.00
13732;BME280;6937;56.096;12.664;2023-05-29T06:21:29;102121.97;;;12.95;100.00
13732;BME280;6937;56.096;12.664;2023-05-29T06:23:55;102125.16;;;13.01;100.00
13732;BME280;6937;56.096;12.664;2023-05-29T06:26:21;102123.91;;;13.07;100.00
13732;BME280;6937;56.096;12.664;2023-05-29T06:28:46;102123.09;;;13.21;100.00
13732;BME280;6937;56.096;12.664;2023-05-29T06:31:12;102121.75;;;13.28;100.00
13732;BME280;6937;56.096;12.664;2023-05-29T06:33:37;102119.47;;;13.36;100.00
13732;BME280;6937;56.096;12.664;2023-05-29T06:36:03;102113.63;;;13.43;100.00
13732;BME280;6937;56.096;12.664;2023-05-29T06:38:28;102114.88;;;13.52;100.00
13732;BME280;6937;56.096;12.664;2023-05-29T06:40:54;102126.47;;;13.67;100.00
13732;BME280;6937;56.096;12.664;2023-05-29T06:43:19;102115.03;;;13.77;100.00
13732;BME280;6937;56.096;12.664;2023-05-29T06:45:45;102118.09;;;13.85;100.00
13732;BME280;6937;56.096;12.664;2023-05-29T06:48:10;102117.59;;;13.93;100.00
13732;BME280;6937;56.096;12.664;2023-05-29T06:50:35;102127.34;;;14.08;100.00
13732;BME280;6937;56.096;12.664;2023-05-29T06:53:01;102127.72;;;14.16;100.00
13732;BME280;6937;56.096;12.664;2023-05-29T06:55:26;102132.47;;;14.25;100.00
13732;BME280;6937;56.096;12.664;2023-05-29T06:57:52;102130.16;;;14.33;100.00
13732;BME280;6937;56.096;12.664;2023-05-29T07:00:17;102138.34;;;14.32;100.00
13732;BME280;6937;56.096;12.664;2023-05-29T07:02:43;102136.59;;;14.31;100.00
13732;BME280;6937;56.096;12.664;2023-05-29T07:05:08;102132.66;;;14.36;100.00
13732;BME280;6937;56.096;12.664;2023-05-29T07:07:34;102132.94;;;14.46;100.00
13732;BME280;6937;56.096;12.664;2023-05-29T07:09:59;102132.63;;;14.50;100.00
13732;BME280;6937;56.096;12.664;2023-05-29T07:12:24;102125.22;;;14.54;100.00
13732;BME280;6937;56.096;12.664;2023-05-29T07:14:50;102122.50;;;14.54;100.00
13732;BME280;6937;56.096;12.664;2023-05-29T07:17:15;102121.34;;;14.58;100.00
13732;BME280;6937;56.096;12.664;2023-05-29T07:19:41;102124.81;;;14.73;100.00
13732;BME280;6937;56.096;12.664;2023-05-29T07:22:06;102111.38;;;14.73;100.00
13732;BME280;6937;56.096;12.664;2023-05-29T07:24:32;102118.66;;;14.71;100.00
13732;BME280;6937;56.096;12.664;2023-05-29T07:26:57;102117.28;;;14.78;100.00
13732;BME280;6937;56.096;12.664;2023-05-29T07:29:23;102106.41;;;14.79;100.00
13732;BME280;6937;56.096;12.664;2023-05-29T07:31:50;102104.16;;;14.86;100.00
13732;BME280;6937;56.096;12.664;2023-05-29T07:34:15;102094.56;;;14.82;100.00
13732;BME280;6937;56.096;12.664;2023-05-29T07:37:02;102077.47;;;14.95;100.00
13732;BME280;6937;56.096;12.664;2023-05-29T07:39:29;102066.59;;;15.10;100.00
13732;BME280;6937;56.096;12.664;2023-05-29T07:41:55;102062.28;;;15.20;100.00
13732;BME280;6937;56.096;12.664;2023-05-29T07:44:20;102074.13;;;15.17;100.00
13732;BME280;6937;56.096;12.664;2023-05-29T07:46:46;102054.31;;;15.06;100.00
13732;BME280;6937;56.096;12.664;2023-05-29T07:49:11;102065.31;;;15.03;100.00
13732;BME280;6937;56.096;12.664;2023-05-29T07:51:37;102070.78;;;15.14;100.00
13732;BME280;6937;56.096;12.664;2023-05-29T07:54:02;102071.13;;;15.22;100.00
13732;BME280;6937;56.096;12.664;2023-05-29T07:56:28;102060.22;;;15.23;100.00
13732;BME280;6937;56.096;12.664;2023-05-29T07:58:54;102062.59;;;15.28;100.00
13732;BME280;6937;56.096;12.664;2023-05-29T08:01:20;102055.06;;;15.20;100.00
13732;BME280;6937;56.096;12.664;2023-05-29T08:03:46;102061.19;;;15.22;100.00
13732;BME280;6937;56.096;12.664;2023-05-29T08:06:12;102065.06;;;15.31;100.00
13732;BME280;6937;56.096;12.664;2023-05-29T08:08:38;102056.66;;;15.35;100.00
13732;BME280;6937;56.096;12.664;2023-05-29T08:11:03;102059.03;;;15.40;100.00
13732;BME280;6937;56.096;12.664;2023-05-29T08:13:29;102050.00;;;15.28;100.00
13732;BME280;6937;56.096;12.664;2023-05-29T08:15:55;102059.72;;;15.18;100.00
13732;BME280;6937;56.096;12.664;2023-05-29T08:18:21;102058.28;;;15.25;100.00
13732;BME280;6937;56.096;12.664;2023-05-29T08:20:46;102050.94;;;15.40;100.00
13732;BME280;6937;56.096;12.664;2023-05-29T08:23:12;102052.38;;;15.33;100.00
13732;BME280;6937;56.096;12.664;2023-05-29T08:25:37;102061.81;;;15.38;100.00
13732;BME280;6937;56.096;12.664;2023-05-29T08:28:03;102059.25;;;15.37;100.00
13732;BME280;6937;56.096;12.664;2023-05-29T08:30:28;102045.78;;;15.37;100.00
13732;BME280;6937;56.096;12.664;2023-05-29T08:32:53;102051.28;;;15.35;100.00
13732;BME280;6937;56.096;12.664;2023-05-29T08:35:19;102055.34;;;15.54;100.00
13732;BME280;6937;56.096;12.664;2023-05-29T08:37:44;102057.72;;;15.58;100.00
13732;BME280;6937;56.096;12.664;2023-05-29T08:40:10;102063.09;;;15.71;100.00
13732;BME280;6937;56.096;12.664;2023-05-29T08:42:42;102061.59;;;15.67;100.00
13732;BME280;6937;56.096;12.664;2023-05-29T08:45:13;102066.13;;;15.41;100.00
13732;BME280;6937;56.096;12.664;2023-05-29T08:47:40;102054.69;;;15.37;100.00
13732;BME280;6937;56.096;12.664;2023-05-29T08:50:06;102058.38;;;15.36;100.00
13732;BME280;6937;56.096;12.664;2023-05-29T08:52:34;102058.81;;;15.43;100.00
13732;BME280;6937;56.096;12.664;2023-05-29T08:55:03;102066.03;;;15.55;100.00
13732;BME280;6937;56.096;12.664;2023-05-29T08:57:29;102057.50;;;15.61;100.00
13732;BME280;6937;56.096;12.664;2023-05-29T08:59:55;102039.81;;;15.57;100.00
13732;BME280;6937;56.096;12.664;2023-05-29T09:02:21;102042.09;;;15.51;100.00
13732;BME280;6937;56.096;12.664;2023-05-29T09:04:47;102039.16;;;15.66;100.00
13732;BME280;6937;56.096;12.664;2023-05-29T09:07:18;102047.13;;;15.68;100.00
13732;BME280;6937;56.096;12.664;2023-05-29T09:09:45;102032.69;;;15.56;100.00
13732;BME280;6937;56.096;12.664;2023-05-29T09:12:10;102034.03;;;15.51;100.00
13732;BME280;6937;56.096;12.664;2023-05-29T09:14:38;102035.00;;;15.50;100.00
13732;BME280;6937;56.096;12.664;2023-05-29T09:17:05;102043.06;;;15.50;100.00
13732;BME280;6937;56.096;12.664;2023-05-29T09:19:32;102049.75;;;15.57;100.00
13732;BME280;6937;56.096;12.664;2023-05-29T09:22:05;102035.78;;;15.75;100.00
13732;BME280;6937;56.096;12.664;2023-05-29T09:24:35;102035.22;;;15.83;100.00
13732;BME280;6937;56.096;12.664;2023-05-29T09:27:02;102049.94;;;15.66;100.00
13732;BME280;6937;56.096;12.664;2023-05-29T09:29:33;102045.53;;;15.65;100.00
13732;BME280;6937;56.096;12.664;2023-05-29T09:31:59;102049.63;;;15.71;100.00
13732;BME280;6937;56.096;12.664;2023-05-29T09:34:25;102056.38;;;15.76;100.00
13732;BME280;6937;56.096;12.664;2023-05-29T09:36:53;102051.28;;;15.84;100.00
13732;BME280;6937;56.096;12.664;2023-05-29T09:39:18;102055.50;;;15.76;100.00
13732;BME280;6937;56.096;12.664;2023-05-29T09:41:45;102056.28;;;15.78;100.00
13732;BME280;6937;56.096;12.664;2023-05-29T09:44:12;102045.31;;;15.92;100.00
13732;BME280;6937;56.096;12.664;2023-05-29T09:46:39;102045.72;;;15.99;100.00
13732;BME280;6937;56.096;12.664;2023-05-29T09:49:13;102030.22;;;15.66;100.00
13732;BME280;6937;56.096;12.664;2023-05-29T09:51:40;102036.81;;;15.49;100.00
13732;BME280;6937;56.096;12.664;2023-05-29T09:54:18;102061.06;;;15.49;100.00
13732;BME280;6937;56.096;12.664;2023-05-29T09:56:44;102050.44;;;15.71;100.00
13732;BME280;6937;56.096;12.664;2023-05-29T09:59:12;102047.19;;;15.79;100.00
13732;BME280;6937;56.096;12.664;2023-05-29T10:01:42;102043.47;;;15.56;100.00
13732;BME280;6937;56.096;12.664;2023-05-29T10:04:10;102038.31;;;15.53;100.00
13732;BME280;6937;56.096;12.664;2023-05-29T10:06:37;102050.19;;;15.63;100.00
13732;BME280;6937;56.096;12.664;2023-05-29T10:09:05;102026.66;;;15.65;100.00
13732;BME280;6937;56.096;12.664;2023-05-29T10:11:31;102038.56;;;15.50;100.00
13732;BME280;6937;56.096;12.664;2023-05-29T10:13:59;102046.69;;;15.48;100.00
13732;BME280;6937;56.096;12.664;2023-05-29T10:16:25;102054.16;;;15.58;100.00
13732;BME280;6937;56.096;12.664;2023-05-29T10:18:56;102051.72;;;15.78;100.00
13732;BME280;6937;56.096;12.664;2023-05-29T10:21:25;102042.41;;;15.59;100.00
13732;BME280;6937;56.096;12.664;2023-05-29T10:23:51;102059.47;;;15.83;100.00
13732;BME280;6937;56.096;12.664;2023-05-29T10:26:21;102051.63;;;16.04;100.00
13732;BME280;6937;56.096;12.664;2023-05-29T10:29:25;102047.22;;;16.03;100.00
13732;BME280;6937;56.096;12.664;2023-05-29T10:35:29;102056.75;;;15.95;100.00
13732;BME280;6937;56.096;12.664;2023-05-29T10:37:49;102048.09;;;16.03;100.00
13732;BME280;6937;56.096;12.664;2023-05-29T10:40:23;102057.53;;;16.09;100.00
13732;BME280;6937;56.096;12.664;2023-05-29T10:42:50;102073.22;;;16.04;100.00
13732;BME280;6937;56.096;12.664;2023-05-29T10:50:36;102076.19;;;15.88;100.00
13732;BME280;6937;56.096;12.664;2023-05-29T10:53:01;102088.56;;;15.90;100.00
13732;BME280;6937;56.096;12.664;2023-05-29T10:55:36;102073.81;;;15.83;100.00
13732;BME280;6937;56.096;12.664;2023-05-29T10:58:10;102068.28;;;15.61;100.00
13732;BME280;6937;56.096;12.664;2023-05-29T11:00:41;102075.91;;;15.67;100.00
13732;BME280;6937;56.096;12.664;2023-05-29T11:03:10;102064.69;;;15.73;100.00
13732;BME280;6937;56.096;12.664;2023-05-29T11:08:47;102066.75;;;15.70;100.00
13732;BME280;6937;56.096;12.664;2023-05-29T11:11:30;102062.81;;;15.86;100.00
13732;BME280;6937;56.096;12.664;2023-05-29T11:13:57;102076.22;;;15.75;100.00
13732;BME280;6937;56.096;12.664;2023-05-29T11:18:55;102068.63;;;15.93;100.00
13732;BME280;6937;56.096;12.664;2023-05-29T11:24:01;102058.03;;;15.90;100.00
13732;BME280;6937;56.096;12.664;2023-05-29T11:26:33;102082.94;;;15.93;100.00
13732;BME280;6937;56.096;12.664;2023-05-29T11:29:02;102094.78;;;16.04;100.00
13732;BME280;6937;56.096;12.664;2023-05-29T11:31:28;102083.19;;;16.14;100.00
13732;BME280;6937;56.096;12.664;2023-05-29T11:33:59;102075.63;;;15.95;100.00
13732;BME280;6937;56.096;12.664;2023-05-29T11:36:25;102093.47;;;15.85;100.00
13732;BME280;6937;56.096;12.664;2023-05-29T11:38:51;102091.97;;;15.69;100.00
13732;BME280;6937;56.096;12.664;2023-05-29T11:41:18;102110.53;;;15.73;100.00
13732;BME280;6937;56.096;12.664;2023-05-29T11:43:44;102095.69;;;15.55;100.00
13732;BME280;6937;56.096;12.664;2023-05-29T11:46:16;102087.25;;;15.34;100.00
13732;BME280;6937;56.096;12.664;2023-05-29T11:48:48;102100.84;;;15.33;100.00
13732;BME280;6937;56.096;12.664;2023-05-29T11:51:14;102085.88;;;15.54;100.00
13732;BME280;6937;56.096;12.664;2023-05-29T11:53:46;102079.13;;;15.72;100.00
13732;BME280;6937;56.096;12.664;2023-05-29T11:56:12;102085.94;;;15.65;100.00
13732;BME280;6937;56.096;12.664;2023-05-29T11:58:39;102080.34;;;15.68;100.00
13732;BME280;6937;56.096;12.664;2023-05-29T12:01:05;102080.56;;;15.53;100.00
13732;BME280;6937;56.096;12.664;2023-05-29T12:03:36;102072.59;;;15.38;100.00
13732;BME280;6937;56.096;12.664;2023-05-29T12:06:02;102079.06;;;15.36;100.00
13732;BME280;6937;56.096;12.664;2023-05-29T12:08:28;102086.84;;;15.28;100.00
13732;BME280;6937;56.096;12.664;2023-05-29T12:10:53;102090.72;;;15.36;100.00
13732;BME280;6937;56.096;12.664;2023-05-29T12:13:19;102082.50;;;15.38;100.00
13732;BME280;6937;56.096;12.664;2023-05-29T12:15:45;102062.69;;;15.26;100.00
13732;BME280;6937;56.096;12.664;2023-05-29T12:18:12;102054.63;;;15.14;100.00
13732;BME280;6937;56.096;12.664;2023-05-29T12:20:38;102058.94;;;15.29;100.00
13732;BME280;6937;56.096;12.664;2023-05-29T12:23:05;102037.72;;;15.24;100.00
13732;BME280;6937;56.096;12.664;2023-05-29T12:25:30;102046.19;;;15.31;100.00
13732;BME280;6937;56.096;12.664;2023-05-29T12:27:56;102039.94;;;15.43;100.00
13732;BME280;6937;56.096;12.664;2023-05-29T12:30:24;102034.63;;;15.67;100.00
13732;BME280;6937;56.096;12.664;2023-05-29T12:32:51;102024.28;;;15.61;100.00
13732;BME280;6937;56.096;12.664;2023-05-29T12:37:46;102034.44;;;15.44;100.00
13732;BME280;6937;56.096;12.664;2023-05-29T12:40:19;102035.34;;;15.20;100.00
13732;BME280;6937;56.096;12.664;2023-05-29T12:42:52;102038.16;;;15.06;100.00
13732;BME280;6937;56.096;12.664;2023-05-29T12:45:18;102042.44;;;15.08;100.00
13732;BME280;6937;56.096;12.664;2023-05-29T12:47:54;102039.13;;;15.05;100.00
13732;BME280;6937;56.096;12.664;2023-05-29T12:50:27;102029.22;;;14.92;100.00
13732;BME280;6937;56.096;12.664;2023-05-29T12:52:55;102040.84;;;14.93;100.00
13732;BME280;6937;56.096;12.664;2023-05-29T12:55:20;102048.16;;;15.04;100.00
13732;BME280;6937;56.096;12.664;2023-05-29T12:57:46;102037.19;;;15.07;100.00
13732;BME280;6937;56.096;12.664;2023-05-29T13:00:12;102024.56;;;15.20;100.00
13732;BME280;6937;56.096;12.664;2023-05-29T13:02:38;102029.09;;;15.19;100.00